createdAt,value
2022-08-21T00:01:55.862Z,20.8
2022-08-21T00:04:24.143Z,20.8
2022-08-21T00:06:52.395Z,20.9
2022-08-21T00:09:20.604Z,20.8
2022-08-21T00:11:48.901Z,20.8
2022-08-21T00:15:33.794Z,20.7
2022-08-21T00:16:45.468Z,20.7
2022-08-21T00:19:13.652Z,20.7
2022-08-21T00:21:41.949Z,20.6
2022-08-21T00:24:10.227Z,20.6
2022-08-21T00:26:38.508Z,20.6
2022-08-21T00:29:06.694Z,20.6
2022-08-21T00:31:34.991Z,20.6
2022-08-21T00:34:03.255Z,20.5
2022-08-21T00:36:31.505Z,20.5
2022-08-21T00:38:59.738Z,20.6
2022-08-21T00:41:28.040Z,20.6
2022-08-21T00:46:24.554Z,20.5
2022-08-21T00:48:52.832Z,20.4
2022-08-21T00:51:21.024Z,20.3
2022-08-21T00:53:49.345Z,20.3
2022-08-21T00:56:17.554Z,20.3
2022-08-21T00:58:45.847Z,20.2
2022-08-21T01:01:14.057Z,20.2
2022-08-21T01:03:42.337Z,20.2
2022-08-21T01:04:58.994Z,20.2
2022-08-21T01:06:10.580Z,20.2
2022-08-21T01:08:38.866Z,20.2
2022-08-21T01:11:07.140Z,20.2
2022-08-21T01:16:03.655Z,20.1
2022-08-21T01:21:00.178Z,20
2022-08-21T01:23:28.411Z,20
2022-08-21T01:25:56.678Z,19.9
2022-08-21T01:28:24.908Z,19.9
2022-08-21T01:29:41.574Z,19.8
2022-08-21T01:30:53.219Z,19.9
2022-08-21T01:38:17.962Z,19.8
2022-08-21T01:40:46.213Z,19.8
2022-08-21T01:43:14.508Z,19.8
2022-08-21T01:45:42.745Z,19.8
2022-08-21T01:50:39.316Z,19.7
2022-08-21T01:53:07.576Z,19.7
2022-08-21T01:54:24.195Z,19.7
2022-08-21T01:55:35.835Z,19.7
2022-08-21T01:58:04.091Z,19.7
2022-08-21T02:00:32.316Z,19.6
2022-08-21T02:03:00.572Z,19.6
2022-08-21T02:07:57.094Z,19.5
2022-08-21T02:15:21.874Z,19.4
2022-08-21T02:17:50.144Z,19.4
2022-08-21T02:19:06.768Z,19.3
2022-08-21T02:20:18.361Z,19.3
2022-08-21T02:22:46.626Z,19.3
2022-08-21T02:25:14.928Z,19.3
2022-08-21T02:30:11.447Z,19.3
2022-08-21T02:32:39.704Z,19.3
2022-08-21T02:35:07.943Z,19.3
2022-08-21T02:37:36.196Z,19.3
2022-08-21T02:40:04.481Z,19.2
2022-08-21T02:45:00.955Z,19.2
2022-08-21T02:49:57.486Z,19.1
2022-08-21T02:52:25.721Z,19.1
2022-08-21T02:54:53.984Z,19.1
2022-08-21T02:57:22.287Z,19.1
2022-08-21T02:59:50.496Z,19.1
2022-08-21T03:04:47.047Z,19
2022-08-21T03:07:15.292Z,19
2022-08-21T03:08:31.987Z,19
2022-08-21T03:09:43.542Z,19
2022-08-21T03:12:11.863Z,18.9
2022-08-21T03:17:08.328Z,18.8
2022-08-21T03:22:04.878Z,18.8
2022-08-21T03:29:29.602Z,18.8
2022-08-21T03:33:14.559Z,18.8
2022-08-21T03:34:26.159Z,18.8
2022-08-21T03:36:54.415Z,18.8
2022-08-21T03:39:22.716Z,18.7
2022-08-21T03:41:50.905Z,18.7
2022-08-21T03:44:19.177Z,18.7
2022-08-21T03:46:47.455Z,18.6
2022-08-21T03:51:43.977Z,18.6
2022-08-21T03:54:12.241Z,18.6
2022-08-21T03:57:57.152Z,18.5
2022-08-21T03:59:08.754Z,18.6
2022-08-21T04:06:33.507Z,18.5
2022-08-21T04:09:01.794Z,18.6
2022-08-21T04:13:58.260Z,18.5
2022-08-21T04:16:26.542Z,18.5
2022-08-21T04:21:23.090Z,18.3
2022-08-21T04:22:39.700Z,18.3
2022-08-21T04:23:51.350Z,18.3
2022-08-21T04:28:47.873Z,18.2
2022-08-21T04:31:16.090Z,18.3
2022-08-21T04:36:12.631Z,18.3
2022-08-21T04:38:40.862Z,18.2
2022-08-21T04:41:09.159Z,18.3
2022-08-21T04:43:37.356Z,18.3
2022-08-21T04:46:05.637Z,18.3
2022-08-21T04:51:02.165Z,18.2
2022-08-21T04:53:30.411Z,18.3
2022-08-21T04:55:58.711Z,18.2
2022-08-21T04:58:26.977Z,18
2022-08-21T05:05:51.717Z,18
2022-08-21T05:12:04.913Z,18
2022-08-21T05:13:16.481Z,18
2022-08-21T05:15:44.784Z,18
2022-08-21T05:20:41.258Z,18
2022-08-21T05:25:37.801Z,18
2022-08-21T05:28:06.054Z,18
2022-08-21T05:30:34.284Z,18
2022-08-21T05:33:02.556Z,18
2022-08-21T05:35:30.834Z,18
2022-08-21T05:36:47.482Z,18.1
2022-08-21T05:42:55.583Z,18.1
2022-08-21T05:47:52.132Z,18.1
2022-08-21T05:50:20.403Z,18.2
2022-08-21T05:52:48.676Z,18.2
2022-08-21T05:57:45.151Z,18.4
2022-08-21T06:01:30.116Z,18.4
2022-08-21T06:05:09.935Z,18.4
2022-08-21T06:07:38.170Z,18.4
2022-08-21T06:10:06.427Z,18.4
2022-08-21T06:12:34.741Z,18.4
2022-08-21T06:15:02.956Z,18.3
2022-08-21T06:17:31.235Z,18.3
2022-08-21T06:19:59.479Z,18.4
2022-08-21T06:22:27.727Z,18.4
2022-08-21T06:27:24.287Z,18.5
2022-08-21T06:29:52.557Z,18.5
2022-08-21T06:32:20.812Z,18.6
2022-08-21T06:34:49.020Z,18.6
2022-08-21T06:42:13.838Z,18.8
2022-08-21T06:44:42.083Z,18.8
2022-08-21T06:47:10.346Z,18.8
2022-08-21T06:49:38.573Z,18.8
2022-08-21T06:54:35.112Z,18.8
2022-08-21T06:57:03.363Z,18.8
2022-08-21T06:59:31.619Z,18.9
2022-08-21T07:04:28.164Z,19
2022-08-21T07:06:56.412Z,19.1
2022-08-21T07:09:24.625Z,19.1
2022-08-21T07:11:52.911Z,19.2
2022-08-21T07:15:37.868Z,19.3
2022-08-21T07:16:49.416Z,19.3
2022-08-21T07:19:17.682Z,19.4
2022-08-21T07:21:45.953Z,19.4
2022-08-21T07:24:14.246Z,19.5
2022-08-21T07:26:42.489Z,19.5
2022-08-21T07:31:39.020Z,19.6
2022-08-21T07:36:35.530Z,19.8
2022-08-21T07:39:03.775Z,19.9
2022-08-21T07:40:20.420Z,20
2022-08-21T07:41:32.067Z,20
2022-08-21T07:44:00.261Z,20.1
2022-08-21T07:46:28.566Z,20.1
2022-08-21T07:48:56.824Z,20.2
2022-08-21T07:53:53.322Z,20.3
2022-08-21T07:56:21.578Z,20.4
2022-08-21T07:58:49.847Z,20.4
2022-08-21T08:03:46.374Z,20.6
2022-08-21T08:05:03.030Z,20.7
2022-08-21T08:08:42.890Z,20.7
2022-08-21T08:11:11.155Z,20.8
2022-08-21T08:18:35.931Z,21.1
2022-08-21T08:21:04.151Z,21.1
2022-08-21T08:23:32.398Z,21.2
2022-08-21T08:26:00.677Z,21.3
2022-08-21T08:33:25.455Z,21.6
2022-08-21T08:35:53.759Z,21.6
2022-08-21T08:40:50.242Z,21.7
2022-08-21T08:43:18.483Z,21.8
2022-08-21T08:45:46.788Z,21.9
2022-08-21T08:48:15.064Z,22
2022-08-21T08:50:43.319Z,22.1
2022-08-21T08:53:11.543Z,22.1
2022-08-21T08:55:39.846Z,22.3
2022-08-21T08:58:08.039Z,22.3
2022-08-21T09:03:04.597Z,22.2
2022-08-21T09:05:32.830Z,22.2
2022-08-21T09:08:01.092Z,22.1
2022-08-21T09:10:29.335Z,22.2
2022-08-21T09:17:54.177Z,22.3
2022-08-21T09:19:10.810Z,22.4
2022-08-21T09:25:18.961Z,22.4
2022-08-21T09:27:47.206Z,22.4
2022-08-21T09:30:15.415Z,22.4
2022-08-21T09:32:43.709Z,22.4
2022-08-21T09:40:08.506Z,22.6
2022-08-21T09:43:53.398Z,22.7
2022-08-21T09:47:33.266Z,22.8
2022-08-21T09:50:01.550Z,22.9
2022-08-21T09:52:29.804Z,22.9
2022-08-21T09:54:58.004Z,23.2
2022-08-21T09:59:54.592Z,23.1
2022-08-21T10:04:51.070Z,23.1
2022-08-21T10:08:35.997Z,23.3
2022-08-21T10:09:47.604Z,23.3
2022-08-21T10:14:44.150Z,23.5
2022-08-21T10:17:12.353Z,23.6
2022-08-21T10:24:37.125Z,24.7
2022-08-21T10:27:05.412Z,26.8
2022-08-21T10:29:33.695Z,29
2022-08-21T10:32:01.891Z,30.6
2022-08-21T10:33:18.620Z,31.8
2022-08-21T10:34:30.213Z,32.4
2022-08-21T10:36:58.421Z,32.8
2022-08-21T10:39:26.729Z,33.6
2022-08-21T10:46:51.503Z,34.6
2022-08-21T10:49:19.746Z,34.6
2022-08-21T10:54:16.300Z,33.9
2022-08-21T10:59:12.827Z,33.3
2022-08-21T11:01:41.037Z,33.5
2022-08-21T11:04:09.335Z,34
2022-08-21T11:11:34.091Z,33.5
2022-08-21T11:16:30.654Z,34
2022-08-21T11:21:27.116Z,34.1
2022-08-21T11:22:43.792Z,33.8
2022-08-21T11:23:55.396Z,33.8
2022-08-21T11:28:51.906Z,34
2022-08-21T11:31:20.183Z,34
2022-08-21T11:33:48.443Z,33.8
2022-08-21T11:43:41.445Z,34.6
2022-08-21T11:47:26.399Z,34.5
2022-08-21T11:48:38.009Z,34.5
2022-08-21T11:51:06.250Z,34.5
2022-08-21T11:53:34.557Z,34.6
2022-08-21T11:56:02.809Z,34.3
2022-08-21T11:58:31.068Z,33.9
2022-08-21T12:00:59.335Z,33.9
2022-08-21T12:03:27.539Z,34.1
2022-08-21T12:05:55.848Z,34.5
2022-08-21T12:10:52.335Z,35.3
2022-08-21T12:12:09.010Z,35.8
2022-08-21T12:15:48.906Z,36.3
2022-08-21T12:18:17.128Z,36.5
2022-08-21T12:30:38.446Z,36.5
2022-08-21T12:33:06.685Z,36.7
2022-08-21T12:35:34.957Z,37.1
2022-08-21T12:36:51.641Z,37.3
2022-08-21T12:38:03.227Z,37.7
2022-08-21T12:40:31.488Z,38
2022-08-21T12:42:59.701Z,38.2
2022-08-21T12:45:27.982Z,38.2
2022-08-21T13:00:17.566Z,36.9
2022-08-21T13:05:14.067Z,36.8
2022-08-21T13:07:42.353Z,36.3
2022-08-21T13:15:07.140Z,33.8
2022-08-21T13:17:35.343Z,33.1
2022-08-21T13:22:31.845Z,32.3
2022-08-21T13:25:00.141Z,31.9
2022-08-21T13:26:16.780Z,31.5
2022-08-21T13:27:28.414Z,31.3
2022-08-21T13:29:56.675Z,31.3
2022-08-21T13:37:21.420Z,31
2022-08-21T13:47:14.458Z,30.4
2022-08-21T13:49:42.730Z,30.2
2022-08-21T13:50:59.414Z,30
2022-08-21T13:57:07.504Z,29.8
2022-08-21T13:59:35.763Z,29.4
2022-08-21T14:02:04.053Z,29.2
2022-08-21T14:04:32.314Z,29.2
2022-08-21T14:07:00.580Z,29.3
2022-08-21T14:14:25.341Z,29.2
2022-08-21T14:15:41.982Z,29
2022-08-21T14:21:50.111Z,29.1
2022-08-21T14:24:18.326Z,29.1
2022-08-21T14:26:46.618Z,29
2022-08-21T14:29:14.862Z,28.8
2022-08-21T14:31:43.109Z,28.7
2022-08-21T14:34:11.414Z,28.7
2022-08-21T14:36:39.639Z,28.5
2022-08-21T14:39:07.914Z,28.5
2022-08-21T14:40:24.604Z,28.1
2022-08-21T14:41:36.183Z,28
2022-08-21T14:44:04.412Z,28
2022-08-21T14:46:32.686Z,27.8
2022-08-21T14:51:29.206Z,27.7
2022-08-21T14:56:25.717Z,27.5
2022-08-21T14:58:53.945Z,27.4
2022-08-21T15:01:22.211Z,27.2
2022-08-21T15:03:50.513Z,27.2
2022-08-21T15:06:18.760Z,27.1
2022-08-21T15:11:15.314Z,27.1
2022-08-21T15:18:40.060Z,26.9
2022-08-21T15:23:36.569Z,26.8
2022-08-21T15:26:04.838Z,26.7
2022-08-21T15:28:33.056Z,26.7
2022-08-21T15:29:49.744Z,26.7
2022-08-21T15:33:29.636Z,26.7
2022-08-21T15:35:57.852Z,26.6
2022-08-21T15:38:26.109Z,26.7
2022-08-21T15:40:54.382Z,26.7
2022-08-21T15:43:22.662Z,26.7
2022-08-21T15:50:47.410Z,26.5
2022-08-21T15:54:32.331Z,26.4
2022-08-21T15:55:43.992Z,26.4
2022-08-21T16:03:08.704Z,26.4
2022-08-21T16:05:36.972Z,26.4
2022-08-21T16:08:05.259Z,26.4
2022-08-21T16:10:33.530Z,26.5
2022-08-21T16:13:01.739Z,26.5
2022-08-21T16:19:14.960Z,26.6
2022-08-21T16:20:26.558Z,26.6
2022-08-21T16:22:54.815Z,26.7
2022-08-21T16:27:51.318Z,26.8
2022-08-21T16:30:19.630Z,26.8
2022-08-21T16:35:16.091Z,26.9
2022-08-21T16:37:44.403Z,26.9
2022-08-21T16:40:12.656Z,26.9
2022-08-21T16:42:40.895Z,26.8
2022-08-21T16:43:57.562Z,26.8
2022-08-21T16:45:09.185Z,26.8
2022-08-21T16:47:37.386Z,26.8
2022-08-21T16:50:05.703Z,26.7
2022-08-21T16:52:33.909Z,26.6
2022-08-21T16:55:02.200Z,26.6
2022-08-21T16:57:30.436Z,26.5
2022-08-21T16:59:58.724Z,26.5
2022-08-21T17:02:26.968Z,26.5
2022-08-21T17:04:55.241Z,26.4
2022-08-21T17:07:23.444Z,26.4
2022-08-21T17:09:51.767Z,26.2
2022-08-21T17:12:19.984Z,26.2
2022-08-21T17:14:48.275Z,26.2
2022-08-21T17:17:16.553Z,26.2
2022-08-21T17:19:44.811Z,26.2
2022-08-21T17:22:13.016Z,26.1
2022-08-21T17:24:41.297Z,26.1
2022-08-21T17:27:09.549Z,26.1
2022-08-21T17:29:37.782Z,26.1
2022-08-21T17:33:22.759Z,26.1
2022-08-21T17:34:34.327Z,26.1
2022-08-21T17:39:30.843Z,26
2022-08-21T17:41:59.098Z,26
2022-08-21T17:44:27.338Z,25.9
2022-08-21T17:46:55.655Z,25.8
2022-08-21T17:49:23.886Z,25.7
2022-08-21T17:51:52.147Z,25.6
2022-08-21T17:54:20.385Z,25.5
2022-08-21T17:56:48.670Z,25.5
2022-08-21T17:58:05.309Z,25.5
2022-08-21T18:01:45.168Z,25.4
2022-08-21T18:04:13.424Z,25.3
2022-08-21T18:11:38.226Z,25.2
2022-08-21T18:14:06.513Z,25.2
2022-08-21T18:16:34.717Z,25.1
2022-08-21T18:19:02.989Z,25.1
2022-08-21T18:21:31.238Z,25
2022-08-21T18:22:47.951Z,25
2022-08-21T18:23:59.492Z,25
2022-08-21T18:26:27.812Z,25
2022-08-21T18:28:56.028Z,24.9
2022-08-21T18:31:24.268Z,24.9
2022-08-21T18:33:52.557Z,24.8
2022-08-21T18:36:20.785Z,24.9
2022-08-21T18:38:49.060Z,24.8
2022-08-21T18:41:17.348Z,24.8
2022-08-21T18:43:45.568Z,24.8
2022-08-21T18:46:13.858Z,24.8
2022-08-21T18:47:30.491Z,24.7
2022-08-21T18:48:42.093Z,24.7
2022-08-21T18:51:10.386Z,24.7
2022-08-21T18:53:38.629Z,24.7
2022-08-21T18:56:06.927Z,24.7
2022-08-21T19:01:03.389Z,24.7
2022-08-21T19:03:31.706Z,24.7
2022-08-21T19:05:59.901Z,24.6
2022-08-21T19:08:28.216Z,24.6
2022-08-21T19:10:56.416Z,24.6
2022-08-21T19:18:21.226Z,24.7
2022-08-21T19:23:17.735Z,24.6
2022-08-21T19:25:46.010Z,24.5
2022-08-21T19:33:10.783Z,24.4
2022-08-21T19:35:39.070Z,24.4
2022-08-21T19:36:55.709Z,24.3
2022-08-21T19:38:07.307Z,24.3
2022-08-21T19:40:35.594Z,24.3
2022-08-21T19:43:03.849Z,24.3
2022-08-21T19:45:32.118Z,24.3
2022-08-21T19:48:00.375Z,24.3
2022-08-21T19:50:28.597Z,24.4
2022-08-21T19:55:25.120Z,24.4
2022-08-21T19:57:53.350Z,24.4
2022-08-21T20:01:38.315Z,24.3
2022-08-21T20:02:49.944Z,24.3
2022-08-21T20:07:46.433Z,24.3
2022-08-21T20:10:14.719Z,24.3
2022-08-21T20:12:42.988Z,24.3
2022-08-21T20:15:11.211Z,24.3
2022-08-21T20:17:39.479Z,24.2
2022-08-21T20:20:07.731Z,24.1
2022-08-21T20:22:36.020Z,24.1
2022-08-21T20:25:04.265Z,24.1
2022-08-21T20:26:20.884Z,24.1
2022-08-21T20:27:32.547Z,24.1
2022-08-21T20:30:00.770Z,24.1
2022-08-21T20:32:29.061Z,24.1
2022-08-21T20:37:25.561Z,24.1
2022-08-21T20:39:53.812Z,24
2022-08-21T20:42:22.070Z,24.1
2022-08-21T20:44:50.333Z,24.1
2022-08-21T20:47:18.562Z,24
2022-08-21T20:51:03.516Z,24.1
2022-08-21T20:52:15.139Z,24.1
2022-08-21T20:54:43.371Z,24.1
2022-08-21T20:57:11.606Z,24.1
2022-08-21T21:02:08.170Z,23.9
2022-08-21T21:04:36.413Z,23.8
2022-08-21T21:07:04.667Z,23.8
2022-08-21T21:09:32.890Z,23.8
2022-08-21T21:12:01.174Z,23.8
2022-08-21T21:14:29.450Z,23.9
2022-08-21T21:19:25.947Z,23.8
2022-08-21T21:21:54.245Z,23.8
2022-08-21T21:24:22.502Z,23.8
2022-08-21T21:29:19.033Z,23.8
2022-08-21T21:31:47.260Z,23.8
2022-08-21T21:34:15.517Z,23.7
2022-08-21T21:36:43.772Z,23.7
2022-08-21T21:39:12.056Z,23.7
2022-08-21T21:40:28.723Z,23.7
2022-08-21T21:46:36.851Z,23.7
2022-08-21T21:49:05.065Z,23.6
2022-08-21T21:51:33.304Z,23.6
2022-08-21T21:54:01.579Z,23.6
2022-08-21T22:01:26.340Z,23.6
2022-08-21T22:05:11.292Z,23.4
2022-08-21T22:08:51.141Z,23.4
2022-08-21T22:11:19.442Z,23.3
2022-08-21T22:13:47.686Z,23.3
2022-08-21T22:16:15.953Z,23.3
2022-08-21T22:18:44.171Z,23.3
2022-08-21T22:21:12.484Z,23.3
2022-08-21T22:26:08.983Z,23.3
2022-08-21T22:28:37.263Z,23.3
2022-08-21T22:29:53.866Z,23.3
2022-08-21T22:31:05.504Z,23.3
2022-08-21T22:33:33.782Z,23.3
2022-08-21T22:36:02.000Z,23.3
2022-08-21T22:38:30.257Z,23.2
2022-08-21T22:40:58.565Z,23.2
2022-08-21T22:43:26.790Z,23.2
2022-08-21T22:45:55.014Z,23.2
2022-08-21T22:48:23.314Z,23.2
2022-08-21T22:50:51.569Z,23.1
2022-08-21T22:53:19.819Z,23.1
2022-08-21T22:54:36.486Z,23.1
2022-08-21T22:55:48.218Z,23.1
2022-08-21T22:58:16.532Z,23.1
2022-08-21T23:00:44.797Z,23.1
2022-08-21T23:03:13.005Z,23
2022-08-21T23:05:41.270Z,23
2022-08-21T23:08:09.557Z,23
2022-08-21T23:10:37.796Z,23
2022-08-21T23:13:06.045Z,23
2022-08-21T23:15:34.337Z,22.9
2022-08-21T23:18:02.580Z,22.9
2022-08-21T23:22:59.090Z,22.8
2022-08-21T23:25:27.378Z,22.8
2022-08-21T23:27:55.642Z,22.8
2022-08-21T23:37:48.636Z,22.7
2022-08-21T23:40:16.870Z,22.7
2022-08-21T23:42:45.133Z,22.7
2022-08-21T23:44:01.673Z,22.7
2022-08-21T23:45:13.381Z,22.6
2022-08-21T23:50:09.915Z,22.6
2022-08-21T23:55:06.481Z,22.6
2022-08-21T23:57:34.721Z,22.5
